sensor_id;sensor_type;location;lat;lon;timestamp;pressure;altitude;pressure_sealevel;temperature;humidity
80137;BME280;69466;55.948;37.484;2023-07-28T00:01:47;97990.50;;;21.12;nan
80137;BME280;69466;55.948;37.484;2023-07-28T00:04:12;97981.91;;;21.14;nan
80137;BME280;69466;55.948;37.484;2023-07-28T00:06:39;97976.88;;;21.16;nan
80137;BME280;69466;55.948;37.484;2023-07-28T00:09:05;97989.53;;;21.26;nan
80137;BME280;69466;55.948;37.484;2023-07-28T00:11:31;97986.91;;;21.29;nan
80137;BME280;69466;55.948;37.484;2023-07-28T00:13:57;97986.72;;;21.34;nan
80137;BME280;69466;55.948;37.484;2023-07-28T00:16:22;97974.72;;;21.39;nan
80137;BME280;69466;55.948;37.484;2023-07-28T00:18:48;97985.44;;;21.32;nan
80137;BME280;69466;55.948;37.484;2023-07-28T00:21:14;98006.19;;;21.38;nan
80137;BME280;69466;55.948;37.484;2023-07-28T00:23:40;98014.31;;;21.34;nan
80137;BME280;69466;55.948;37.484;2023-07-28T00:26:06;98011.56;;;21.34;nan
80137;BME280;69466;55.948;37.484;2023-07-28T00:28:32;98023.06;;;21.36;nan
80137;BME280;69466;55.948;37.484;2023-07-28T00:30:58;98029.75;;;21.35;nan
80137;BME280;69466;55.948;37.484;2023-07-28T00:33:24;98021.78;;;21.34;nan
80137;BME280;69466;55.948;37.484;2023-07-28T00:35:50;98037.22;;;21.35;nan
80137;BME280;69466;55.948;37.484;2023-07-28T00:38:16;98030.06;;;21.34;nan
80137;BME280;69466;55.948;37.484;2023-07-28T00:40:41;98032.50;;;21.35;nan
80137;BME280;69466;55.948;37.484;2023-07-28T00:43:08;98045.66;;;21.38;nan
80137;BME280;69466;55.948;37.484;2023-07-28T00:45:35;98043.88;;;21.34;nan
80137;BME280;69466;55.948;37.484;2023-07-28T00:48:02;98046.13;;;21.32;nan
80137;BME280;69466;55.948;37.484;2023-07-28T00:50:33;98039.00;;;21.31;nan
80137;BME280;69466;55.948;37.484;2023-07-28T00:52:59;98029.28;;;21.25;nan
80137;BME280;69466;55.948;37.484;2023-07-28T00:55:25;98029.44;;;21.28;nan
80137;BME280;69466;55.948;37.484;2023-07-28T00:57:51;98025.72;;;21.24;nan
80137;BME280;69466;55.948;37.484;2023-07-28T01:00:18;98020.84;;;21.21;nan
80137;BME280;69466;55.948;37.484;2023-07-28T01:02:45;98021.34;;;21.14;nan
80137;BME280;69466;55.948;37.484;2023-07-28T01:05:12;98029.13;;;21.21;nan
80137;BME280;69466;55.948;37.484;2023-07-28T01:07:47;98033.16;;;21.23;nan
80137;BME280;69466;55.948;37.484;2023-07-28T01:10:21;98027.97;;;21.22;nan
80137;BME280;69466;55.948;37.484;2023-07-28T01:12:48;98017.28;;;21.20;nan
80137;BME280;69466;55.948;37.484;2023-07-28T01:15:14;98011.25;;;21.18;nan
80137;BME280;69466;55.948;37.484;2023-07-28T01:17:41;98016.78;;;21.18;nan
80137;BME280;69466;55.948;37.484;2023-07-28T01:20:07;98003.16;;;21.13;nan
80137;BME280;69466;55.948;37.484;2023-07-28T01:22:47;98011.63;;;21.17;nan
80137;BME280;69466;55.948;37.484;2023-07-28T01:25:43;98007.22;;;21.16;nan
80137;BME280;69466;55.948;37.484;2023-07-28T01:28:13;97995.69;;;21.14;nan
80137;BME280;69466;55.948;37.484;2023-07-28T01:30:41;97997.31;;;21.15;nan
80137;BME280;69466;55.948;37.484;2023-07-28T01:33:07;97991.47;;;21.08;nan
80137;BME280;69466;55.948;37.484;2023-07-28T01:35:36;98005.09;;;21.13;nan
80137;BME280;69466;55.948;37.484;2023-07-28T01:38:04;98002.97;;;21.10;nan
80137;BME280;69466;55.948;37.484;2023-07-28T01:40:30;98000.53;;;21.08;nan
80137;BME280;69466;55.948;37.484;2023-07-28T01:42:56;98003.28;;;21.08;nan
80137;BME280;69466;55.948;37.484;2023-07-28T01:45:22;97993.88;;;21.09;nan
80137;BME280;69466;55.948;37.484;2023-07-28T01:47:49;97984.81;;;21.09;nan
80137;BME280;69466;55.948;37.484;2023-07-28T01:50:15;97987.25;;;21.10;nan
80137;BME280;69466;55.948;37.484;2023-07-28T01:52:41;97983.84;;;21.05;nan
80137;BME280;69466;55.948;37.484;2023-07-28T01:55:07;97995.84;;;21.09;nan
80137;BME280;69466;55.948;37.484;2023-07-28T01:57:34;97991.47;;;21.08;nan
80137;BME280;69466;55.948;37.484;2023-07-28T02:00:00;97982.03;;;21.09;nan
80137;BME280;69466;55.948;37.484;2023-07-28T02:02:26;97981.22;;;21.08;nan
80137;BME280;69466;55.948;37.484;2023-07-28T02:04:53;97985.16;;;21.07;nan
80137;BME280;69466;55.948;37.484;2023-07-28T02:07:19;97979.94;;;21.06;nan
80137;BME280;69466;55.948;37.484;2023-07-28T02:09:44;97972.97;;;21.08;nan
80137;BME280;69466;55.948;37.484;2023-07-28T02:12:10;97967.94;;;21.10;nan
80137;BME280;69466;55.948;37.484;2023-07-28T02:14:36;97956.59;;;21.12;nan
80137;BME280;69466;55.948;37.484;2023-07-28T02:17:02;97965.03;;;21.15;nan
80137;BME280;69466;55.948;37.484;2023-07-28T02:19:48;97962.09;;;21.12;nan
80137;BME280;69466;55.948;37.484;2023-07-28T02:22:14;97976.38;;;21.14;nan
80137;BME280;69466;55.948;37.484;2023-07-28T02:24:40;97964.38;;;21.10;nan
80137;BME280;69466;55.948;37.484;2023-07-28T02:27:05;97962.41;;;21.10;nan
80137;BME280;69466;55.948;37.484;2023-07-28T02:29:31;97966.97;;;21.15;nan
80137;BME280;69466;55.948;37.484;2023-07-28T02:31:57;97965.66;;;21.12;nan
80137;BME280;69466;55.948;37.484;2023-07-28T02:34:23;97974.44;;;21.14;nan
80137;BME280;69466;55.948;37.484;2023-07-28T02:36:49;97966.81;;;21.11;nan
80137;BME280;69466;55.948;37.484;2023-07-28T02:39:15;97965.03;;;21.15;nan
80137;BME280;69466;55.948;37.484;2023-07-28T02:41:42;97976.38;;;21.22;nan
80137;BME280;69466;55.948;37.484;2023-07-28T02:44:08;97979.63;;;21.25;nan
80137;BME280;69466;55.948;37.484;2023-07-28T02:46:34;97976.84;;;21.25;nan
80137;BME280;69466;55.948;37.484;2023-07-28T02:49:00;97987.38;;;21.31;nan
80137;BME280;69466;55.948;37.484;2023-07-28T02:51:28;97988.69;;;21.34;nan
80137;BME280;69466;55.948;37.484;2023-07-28T02:53:55;97999.41;;;21.35;nan
80137;BME280;69466;55.948;37.484;2023-07-28T02:56:21;97990.31;;;21.35;nan
80137;BME280;69466;55.948;37.484;2023-07-28T02:58:48;98010.41;;;21.44;nan
80137;BME280;69466;55.948;37.484;2023-07-28T03:01:14;98020.47;;;21.48;nan
80137;BME280;69466;55.948;37.484;2023-07-28T03:03:41;98035.53;;;21.51;nan
80137;BME280;69466;55.948;37.484;2023-07-28T03:06:08;98039.44;;;21.50;nan
80137;BME280;69466;55.948;37.484;2023-07-28T03:08:36;98039.59;;;21.45;nan
80137;BME280;69466;55.948;37.484;2023-07-28T03:11:25;98008.13;;;21.46;nan
80137;BME280;69466;55.948;37.484;2023-07-28T03:13:51;98021.25;;;21.57;nan
80137;BME280;69466;55.948;37.484;2023-07-28T03:16:17;98021.25;;;21.57;nan
80137;BME280;69466;55.948;37.484;2023-07-28T03:18:43;98020.09;;;21.58;nan
80137;BME280;69466;55.948;37.484;2023-07-28T03:21:10;97996.38;;;21.66;nan
80137;BME280;69466;55.948;37.484;2023-07-28T03:23:36;97997.94;;;21.76;nan
80137;BME280;69466;55.948;37.484;2023-07-28T03:26:03;97995.81;;;21.81;nan
80137;BME280;69466;55.948;37.484;2023-07-28T03:28:30;98020.63;;;21.90;nan
80137;BME280;69466;55.948;37.484;2023-07-28T03:30:56;98053.59;;;21.86;nan
80137;BME280;69466;55.948;37.484;2023-07-28T03:33:21;98077.66;;;21.94;nan
80137;BME280;69466;55.948;37.484;2023-07-28T03:35:47;98082.53;;;21.89;nan
80137;BME280;69466;55.948;37.484;2023-07-28T03:38:13;98082.84;;;21.87;nan
80137;BME280;69466;55.948;37.484;2023-07-28T03:40:40;98068.56;;;21.94;nan
80137;BME280;69466;55.948;37.484;2023-07-28T03:43:06;98050.00;;;22.03;nan
80137;BME280;69466;55.948;37.484;2023-07-28T03:45:32;98052.41;;;22.13;nan
80137;BME280;69466;55.948;37.484;2023-07-28T03:47:57;98041.44;;;22.25;nan
80137;BME280;69466;55.948;37.484;2023-07-28T03:50:23;98058.78;;;22.34;nan
80137;BME280;69466;55.948;37.484;2023-07-28T03:52:52;98070.25;;;22.45;nan
80137;BME280;69466;55.948;37.484;2023-07-28T03:55:18;98096.47;;;22.39;nan
80137;BME280;69466;55.948;37.484;2023-07-28T03:57:43;98141.38;;;22.36;nan
80137;BME280;69466;55.948;37.484;2023-07-28T04:00:10;98159.16;;;22.18;nan
80137;BME280;69466;55.948;37.484;2023-07-28T04:02:39;98165.38;;;21.97;nan
80137;BME280;69466;55.948;37.484;2023-07-28T04:05:04;98178.38;;;21.88;nan
80137;BME280;69466;55.948;37.484;2023-07-28T04:07:31;98210.06;;;21.74;nan
80137;BME280;69466;55.948;37.484;2023-07-28T04:09:56;98217.91;;;21.63;nan
80137;BME280;69466;55.948;37.484;2023-07-28T04:12:22;98178.75;;;21.44;nan
80137;BME280;69466;55.948;37.484;2023-07-28T04:14:48;98176.47;;;21.29;nan
80137;BME280;69466;55.948;37.484;2023-07-28T04:17:14;98148.75;;;21.16;nan
80137;BME280;69466;55.948;37.484;2023-07-28T04:19:40;98111.69;;;21.09;nan
80137;BME280;69466;55.948;37.484;2023-07-28T04:22:06;98088.00;;;20.99;nan
80137;BME280;69466;55.948;37.484;2023-07-28T04:24:33;98037.38;;;20.95;nan
80137;BME280;69466;55.948;37.484;2023-07-28T04:27:00;97959.22;;;20.91;nan
80137;BME280;69466;55.948;37.484;2023-07-28T04:29:27;97893.19;;;20.86;nan
80137;BME280;69466;55.948;37.484;2023-07-28T04:31:53;97872.47;;;20.80;nan
80137;BME280;69466;55.948;37.484;2023-07-28T04:34:35;97866.19;;;20.71;nan
80137;BME280;69466;55.948;37.484;2023-07-28T04:37:21;97882.72;;;20.71;nan
80137;BME280;69466;55.948;37.484;2023-07-28T04:39:56;97907.53;;;20.71;nan
80137;BME280;69466;55.948;37.484;2023-07-28T04:42:22;97927.78;;;20.75;nan
80137;BME280;69466;55.948;37.484;2023-07-28T04:44:48;97892.25;;;20.73;nan
80137;BME280;69466;55.948;37.484;2023-07-28T04:47:18;97880.56;;;20.76;nan
80137;BME280;69466;55.948;37.484;2023-07-28T04:49:44;97912.03;;;20.84;nan
80137;BME280;69466;55.948;37.484;2023-07-28T04:52:31;97926.63;;;20.85;nan
80137;BME280;69466;55.948;37.484;2023-07-28T04:55:32;97937.31;;;20.86;nan
80137;BME280;69466;55.948;37.484;2023-07-28T04:57:58;97933.94;;;20.89;nan
80137;BME280;69466;55.948;37.484;2023-07-28T05:00:27;97942.66;;;20.91;nan
80137;BME280;69466;55.948;37.484;2023-07-28T05:02:54;97974.13;;;20.99;nan
80137;BME280;69466;55.948;37.484;2023-07-28T05:05:20;97973.78;;;21.00;nan
80137;BME280;69466;55.948;37.484;2023-07-28T05:07:46;97984.34;;;21.07;nan
80137;BME280;69466;55.948;37.484;2023-07-28T05:10:15;97982.06;;;21.17;nan
80137;BME280;69466;55.948;37.484;2023-07-28T05:12:41;97976.84;;;21.25;nan
80137;BME280;69466;55.948;37.484;2023-07-28T05:15:09;97994.66;;;21.36;nan
80137;BME280;69466;55.948;37.484;2023-07-28T05:17:38;97995.31;;;21.41;nan
80137;BME280;69466;55.948;37.484;2023-07-28T05:20:42;97997.38;;;21.53;nan
80137;BME280;69466;55.948;37.484;2023-07-28T05:23:11;97997.22;;;21.58;nan
80137;BME280;69466;55.948;37.484;2023-07-28T05:25:37;97997.81;;;21.63;nan
80137;BME280;69466;55.948;37.484;2023-07-28T05:28:03;98002.34;;;21.68;nan
80137;BME280;69466;55.948;37.484;2023-07-28T05:30:32;97997.19;;;21.66;nan
80137;BME280;69466;55.948;37.484;2023-07-28T05:32:58;98002.97;;;21.74;nan
80137;BME280;69466;55.948;37.484;2023-07-28T05:35:30;97999.34;;;21.82;nan
80137;BME280;69466;55.948;37.484;2023-07-28T05:37:55;97994.31;;;21.84;nan
80137;BME280;69466;55.948;37.484;2023-07-28T05:40:21;97998.38;;;21.95;nan
80137;BME280;69466;55.948;37.484;2023-07-28T05:42:47;97999.66;;;22.27;nan
80137;BME280;69466;55.948;37.484;2023-07-28T05:45:13;97988.63;;;22.68;nan
80137;BME280;69466;55.948;37.484;2023-07-28T05:47:39;97988.31;;;23.35;nan
80137;BME280;69466;55.948;37.484;2023-07-28T05:50:06;97995.09;;;24.07;nan
80137;BME280;69466;55.948;37.484;2023-07-28T05:52:32;97988.19;;;24.78;nan
80137;BME280;69466;55.948;37.484;2023-07-28T05:55:00;98001.78;;;25.23;nan
80137;BME280;69466;55.948;37.484;2023-07-28T05:57:28;97995.13;;;25.55;nan
80137;BME280;69466;55.948;37.484;2023-07-28T05:59:54;97992.09;;;25.91;nan
80137;BME280;69466;55.948;37.484;2023-07-28T06:02:20;97993.69;;;26.08;nan
80137;BME280;69466;55.948;37.484;2023-07-28T06:04:51;97997.47;;;26.00;nan
80137;BME280;69466;55.948;37.484;2023-07-28T06:07:17;97996.69;;;25.84;nan
80137;BME280;69466;55.948;37.484;2023-07-28T06:09:43;97998.09;;;25.78;nan
80137;BME280;69466;55.948;37.484;2023-07-28T06:12:10;98005.66;;;25.62;nan
80137;BME280;69466;55.948;37.484;2023-07-28T06:14:36;98005.94;;;25.44;nan
80137;BME280;69466;55.948;37.484;2023-07-28T06:17:05;98010.66;;;25.56;nan
80137;BME280;69466;55.948;37.484;2023-07-28T06:19:35;98018.44;;;25.23;nan
80137;BME280;69466;55.948;37.484;2023-07-28T06:22:02;98038.41;;;25.00;nan
80137;BME280;69466;55.948;37.484;2023-07-28T06:24:29;98038.56;;;24.92;nan
80137;BME280;69466;55.948;37.484;2023-07-28T06:26:58;98034.72;;;24.84;nan
80137;BME280;69466;55.948;37.484;2023-07-28T06:29:24;98030.50;;;24.75;nan
80137;BME280;69466;55.948;37.484;2023-07-28T06:31:50;98025.69;;;24.59;nan
80137;BME280;69466;55.948;37.484;2023-07-28T06:34:15;98022.81;;;24.44;nan
80137;BME280;69466;55.948;37.484;2023-07-28T06:36:41;98012.56;;;24.32;nan
80137;BME280;69466;55.948;37.484;2023-07-28T06:39:07;98019.94;;;24.40;nan
80137;BME280;69466;55.948;37.484;2023-07-28T06:41:33;98034.94;;;24.39;nan
80137;BME280;69466;55.948;37.484;2023-07-28T06:44:00;98045.94;;;24.36;nan
80137;BME280;69466;55.948;37.484;2023-07-28T06:46:28;98054.81;;;24.17;nan
80137;BME280;69466;55.948;37.484;2023-07-28T06:48:55;98120.13;;;23.94;nan
80137;BME280;69466;55.948;37.484;2023-07-28T06:51:20;98157.66;;;23.58;nan
80137;BME280;69466;55.948;37.484;2023-07-28T06:53:46;98170.81;;;23.40;nan
80137;BME280;69466;55.948;37.484;2023-07-28T06:56:12;98153.59;;;23.14;nan
80137;BME280;69466;55.948;37.484;2023-07-28T06:58:38;98187.28;;;22.87;nan
80137;BME280;69466;55.948;37.484;2023-07-28T07:01:04;98244.25;;;22.50;nan
80137;BME280;69466;55.948;37.484;2023-07-28T07:03:29;98296.34;;;22.05;nan
80137;BME280;69466;55.948;37.484;2023-07-28T07:05:55;98282.38;;;21.58;nan
80137;BME280;69466;55.948;37.484;2023-07-28T07:08:21;98260.59;;;21.40;nan
80137;BME280;69466;55.948;37.484;2023-07-28T07:10:51;98233.44;;;21.16;nan
80137;BME280;69466;55.948;37.484;2023-07-28T07:13:17;98207.09;;;21.01;nan
80137;BME280;69466;55.948;37.484;2023-07-28T07:15:44;98188.38;;;20.81;nan
80137;BME280;69466;55.948;37.484;2023-07-28T07:18:09;98174.72;;;20.67;nan
80137;BME280;69466;55.948;37.484;2023-07-28T07:20:38;98161.13;;;20.71;nan
80137;BME280;69466;55.948;37.484;2023-07-28T07:23:05;98163.69;;;20.67;nan
80137;BME280;69466;55.948;37.484;2023-07-28T07:25:32;98120.41;;;20.59;nan
80137;BME280;69466;55.948;37.484;2023-07-28T07:28:02;98093.97;;;20.67;nan
80137;BME280;69466;55.948;37.484;2023-07-28T07:30:28;98077.78;;;20.74;nan
80137;BME280;69466;55.948;37.484;2023-07-28T07:32:53;98042.09;;;20.77;nan
80137;BME280;69466;55.948;37.484;2023-07-28T07:35:19;98027.19;;;20.78;nan
80137;BME280;69466;55.948;37.484;2023-07-28T07:37:45;98047.28;;;20.88;nan
80137;BME280;69466;55.948;37.484;2023-07-28T07:40:11;98084.44;;;20.90;nan
80137;BME280;69466;55.948;37.484;2023-07-28T07:42:48;98094.66;;;20.90;nan
80137;BME280;69466;55.948;37.484;2023-07-28T07:45:15;98071.78;;;20.81;nan
80137;BME280;69466;55.948;37.484;2023-07-28T07:47:43;98075.69;;;20.97;nan
80137;BME280;69466;55.948;37.484;2023-07-28T07:50:10;98051.00;;;21.00;nan
80137;BME280;69466;55.948;37.484;2023-07-28T07:52:40;98047.78;;;21.07;nan
80137;BME280;69466;55.948;37.484;2023-07-28T07:55:09;98051.00;;;21.09;nan
80137;BME280;69466;55.948;37.484;2023-07-28T07:57:35;98068.06;;;21.11;nan
80137;BME280;69466;55.948;37.484;2023-07-28T08:00:00;98096.94;;;21.13;nan
80137;BME280;69466;55.948;37.484;2023-07-28T08:02:32;98097.91;;;21.09;nan
80137;BME280;69466;55.948;37.484;2023-07-28T08:04:58;98094.19;;;21.13;nan
80137;BME280;69466;55.948;37.484;2023-07-28T08:07:25;98097.75;;;21.14;nan
80137;BME280;69466;55.948;37.484;2023-07-28T08:09:51;98105.72;;;21.15;nan
80137;BME280;69466;55.948;37.484;2023-07-28T08:12:17;98101.84;;;21.16;nan
80137;BME280;69466;55.948;37.484;2023-07-28T08:14:43;98105.72;;;21.15;nan
80137;BME280;69466;55.948;37.484;2023-07-28T08:17:12;98099.22;;;21.20;nan
80137;BME280;69466;55.948;37.484;2023-07-28T08:19:37;98099.69;;;21.22;nan
80137;BME280;69466;55.948;37.484;2023-07-28T08:22:03;98108.47;;;21.24;nan
80137;BME280;69466;55.948;37.484;2023-07-28T08:24:31;98105.72;;;21.24;nan
80137;BME280;69466;55.948;37.484;2023-07-28T08:26:57;98121.63;;;21.44;nan
80137;BME280;69466;55.948;37.484;2023-07-28T08:29:24;98122.72;;;21.52;nan
80137;BME280;69466;55.948;37.484;2023-07-28T08:31:52;98117.03;;;21.65;nan
80137;BME280;69466;55.948;37.484;2023-07-28T08:34:19;98110.16;;;21.80;nan
80137;BME280;69466;55.948;37.484;2023-07-28T08:36:46;98114.03;;;21.96;nan
80137;BME280;69466;55.948;37.484;2023-07-28T08:39:11;98111.59;;;22.03;nan
80137;BME280;69466;55.948;37.484;2023-07-28T08:41:37;98120.78;;;22.16;nan
80137;BME280;69466;55.948;37.484;2023-07-28T08:44:03;98130.81;;;22.29;nan
80137;BME280;69466;55.948;37.484;2023-07-28T08:46:29;98134.72;;;22.28;nan
80137;BME280;69466;55.948;37.484;2023-07-28T08:48:56;98149.06;;;22.22;nan
80137;BME280;69466;55.948;37.484;2023-07-28T08:51:22;98151.50;;;22.15;nan
80137;BME280;69466;55.948;37.484;2023-07-28T08:53:49;98164.19;;;22.16;nan
80137;BME280;69466;55.948;37.484;2023-07-28T08:56:15;98166.13;;;22.15;nan
80137;BME280;69466;55.948;37.484;2023-07-28T08:58:43;98170.19;;;22.26;nan
80137;BME280;69466;55.948;37.484;2023-07-28T09:01:10;98164.66;;;22.26;nan
80137;BME280;69466;55.948;37.484;2023-07-28T09:03:39;98175.53;;;22.31;nan
80137;BME280;69466;55.948;37.484;2023-07-28T09:06:07;98164.47;;;22.31;nan
80137;BME280;69466;55.948;37.484;2023-07-28T09:08:37;98176.94;;;22.37;nan
80137;BME280;69466;55.948;37.484;2023-07-28T09:11:05;98173.03;;;22.38;nan
80137;BME280;69466;55.948;37.484;2023-07-28T09:13:38;98167.66;;;22.42;nan
80137;BME280;69466;55.948;37.484;2023-07-28T09:16:27;98176.91;;;22.46;nan
80137;BME280;69466;55.948;37.484;2023-07-28T09:19:07;98170.91;;;22.44;nan
80137;BME280;69466;55.948;37.484;2023-07-28T09:21:34;98173.41;;;22.66;nan
80137;BME280;69466;55.948;37.484;2023-07-28T09:24:03;98178.34;;;22.90;nan
80137;BME280;69466;55.948;37.484;2023-07-28T09:26:42;98182.88;;;23.15;nan
80137;BME280;69466;55.948;37.484;2023-07-28T09:29:17;98191.66;;;23.38;nan
80137;BME280;69466;55.948;37.484;2023-07-28T09:31:44;98196.13;;;23.51;nan
80137;BME280;69466;55.948;37.484;2023-07-28T09:34:10;98211.41;;;23.57;nan
80137;BME280;69466;55.948;37.484;2023-07-28T09:36:38;98217.16;;;23.52;nan
80137;BME280;69466;55.948;37.484;2023-07-28T09:39:05;98201.66;;;23.30;nan
80137;BME280;69466;55.948;37.484;2023-07-28T09:41:37;98220.63;;;23.20;nan
80137;BME280;69466;55.948;37.484;2023-07-28T09:44:05;98238.84;;;23.21;nan
80137;BME280;69466;55.948;37.484;2023-07-28T09:46:34;98247.88;;;23.09;nan
80137;BME280;69466;55.948;37.484;2023-07-28T09:49:10;98258.84;;;22.97;nan
80137;BME280;69466;55.948;37.484;2023-07-28T09:51:40;98262.66;;;22.84;nan
80137;BME280;69466;55.948;37.484;2023-07-28T09:54:23;98258.25;;;22.83;nan
80137;BME280;69466;55.948;37.484;2023-07-28T09:56:55;98258.66;;;22.73;nan
80137;BME280;69466;55.948;37.484;2023-07-28T09:59:37;98252.09;;;22.69;nan
80137;BME280;69466;55.948;37.484;2023-07-28T10:02:04;98231.03;;;22.55;nan
80137;BME280;69466;55.948;37.484;2023-07-28T10:04:34;98228.56;;;22.63;nan
80137;BME280;69466;55.948;37.484;2023-07-28T10:07:02;98236.88;;;22.63;nan
80137;BME280;69466;55.948;37.484;2023-07-28T10:09:30;98252.63;;;22.62;nan
80137;BME280;69466;55.948;37.484;2023-07-28T10:11:56;98238.50;;;22.64;nan
80137;BME280;69466;55.948;37.484;2023-07-28T10:14:30;98240.44;;;22.72;nan
80137;BME280;69466;55.948;37.484;2023-07-28T10:16:58;98242.66;;;22.78;nan
80137;BME280;69466;55.948;37.484;2023-07-28T10:19:25;98232.56;;;22.82;nan
80137;BME280;69466;55.948;37.484;2023-07-28T10:22:10;98210.41;;;22.82;nan
80137;BME280;69466;55.948;37.484;2023-07-28T10:25:00;98233.19;;;22.88;nan
80137;BME280;69466;55.948;37.484;2023-07-28T10:27:43;98254.06;;;22.77;nan
80137;BME280;69466;55.948;37.484;2023-07-28T10:30:12;98264.50;;;22.71;nan
80137;BME280;69466;55.948;37.484;2023-07-28T10:32:47;98253.78;;;22.61;nan
80137;BME280;69466;55.948;37.484;2023-07-28T10:35:26;98244.03;;;22.64;nan
80137;BME280;69466;55.948;37.484;2023-07-28T10:37:55;98238.63;;;22.67;nan
80137;BME280;69466;55.948;37.484;2023-07-28T10:40:33;98233.91;;;22.68;nan
80137;BME280;69466;55.948;37.484;2023-07-28T10:43:03;98215.69;;;22.67;nan
80137;BME280;69466;55.948;37.484;2023-07-28T10:45:31;98217.31;;;22.68;nan
80137;BME280;69466;55.948;37.484;2023-07-28T10:47:58;98206.09;;;22.73;nan
80137;BME280;69466;55.948;37.484;2023-07-28T10:50:31;98198.56;;;22.82;nan
80137;BME280;69466;55.948;37.484;2023-07-28T10:52:57;98185.34;;;22.87;nan
80137;BME280;69466;55.948;37.484;2023-07-28T10:55:25;98160.81;;;22.86;nan
80137;BME280;69466;55.948;37.484;2023-07-28T10:57:54;98169.38;;;22.93;nan
80137;BME280;69466;55.948;37.484;2023-07-28T11:00:22;98184.56;;;23.08;nan
80137;BME280;69466;55.948;37.484;2023-07-28T11:02:52;98185.06;;;23.10;nan
80137;BME280;69466;55.948;37.484;2023-07-28T11:05:21;98173.63;;;23.11;nan
80137;BME280;69466;55.948;37.484;2023-07-28T11:07:54;98190.53;;;23.18;nan
80137;BME280;69466;55.948;37.484;2023-07-28T11:10:21;98211.56;;;23.11;nan
80137;BME280;69466;55.948;37.484;2023-07-28T11:12:51;98197.47;;;23.04;nan
80137;BME280;69466;55.948;37.484;2023-07-28T11:15:18;98201.50;;;23.06;nan
80137;BME280;69466;55.948;37.484;2023-07-28T11:17:46;98181.28;;;23.14;nan
80137;BME280;69466;55.948;37.484;2023-07-28T11:20:22;98170.97;;;23.23;nan
80137;BME280;69466;55.948;37.484;2023-07-28T11:22:58;98163.72;;;23.31;nan
80137;BME280;69466;55.948;37.484;2023-07-28T11:25:27;98180.31;;;23.10;nan
80137;BME280;69466;55.948;37.484;2023-07-28T11:27:53;98149.81;;;23.19;nan
80137;BME280;69466;55.948;37.484;2023-07-28T11:30:22;98167.22;;;23.19;nan
80137;BME280;69466;55.948;37.484;2023-07-28T11:32:50;98169.09;;;23.07;nan
80137;BME280;69466;55.948;37.484;2023-07-28T11:35:18;98184.16;;;22.97;nan
80137;BME280;69466;55.948;37.484;2023-07-28T11:37:49;98206.34;;;22.88;nan
80137;BME280;69466;55.948;37.484;2023-07-28T11:40:17;98222.78;;;22.85;nan
80137;BME280;69466;55.948;37.484;2023-07-28T11:42:47;98218.97;;;22.98;nan
80137;BME280;69466;55.948;37.484;2023-07-28T11:45:16;98225.25;;;22.86;nan
80137;BME280;69466;55.948;37.484;2023-07-28T11:47:55;98241.91;;;22.98;nan
80137;BME280;69466;55.948;37.484;2023-07-28T11:50:23;98257.03;;;23.01;nan
80137;BME280;69466;55.948;37.484;2023-07-28T11:52:49;98265.69;;;23.00;nan
80137;BME280;69466;55.948;37.484;2023-07-28T11:55:15;98266.91;;;23.11;nan
80137;BME280;69466;55.948;37.484;2023-07-28T11:57:43;98269.22;;;23.09;nan
80137;BME280;69466;55.948;37.484;2023-07-28T12:00:09;98272.13;;;23.12;nan
80137;BME280;69466;55.948;37.484;2023-07-28T12:02:39;98252.25;;;23.10;nan
80137;BME280;69466;55.948;37.484;2023-07-28T12:05:15;98258.38;;;22.95;nan
80137;BME280;69466;55.948;37.484;2023-07-28T12:07:47;98250.00;;;22.74;nan
80137;BME280;69466;55.948;37.484;2023-07-28T12:10:13;98262.09;;;22.52;nan
80137;BME280;69466;55.948;37.484;2023-07-28T12:12:44;98287.84;;;22.44;nan
80137;BME280;69466;55.948;37.484;2023-07-28T12:15:22;98289.81;;;22.18;nan
80137;BME280;69466;55.948;37.484;2023-07-28T12:23:06;98313.38;;;21.64;nan
80137;BME280;69466;55.948;37.484;2023-07-28T12:25:32;98324.56;;;21.50;nan
80137;BME280;69466;55.948;37.484;2023-07-28T12:27:58;98318.72;;;21.43;nan
80137;BME280;69466;55.948;37.484;2023-07-28T12:30:24;98314.00;;;21.35;nan
80137;BME280;69466;55.948;37.484;2023-07-28T12:32:50;98315.09;;;21.26;nan
80137;BME280;69466;55.948;37.484;2023-07-28T12:35:16;98330.69;;;21.30;nan
80137;BME280;69466;55.948;37.484;2023-07-28T12:37:42;98341.75;;;21.39;nan
80137;BME280;69466;55.948;37.484;2023-07-28T12:40:08;98342.84;;;21.20;nan
80137;BME280;69466;55.948;37.484;2023-07-28T12:42:35;98356.66;;;21.29;nan
80137;BME280;69466;55.948;37.484;2023-07-28T12:45:01;98346.72;;;21.19;nan
80137;BME280;69466;55.948;37.484;2023-07-28T12:47:30;98357.13;;;21.31;nan
80137;BME280;69466;55.948;37.484;2023-07-28T12:49:56;98356.78;;;21.24;nan
80137;BME280;69466;55.948;37.484;2023-07-28T12:52:22;98358.75;;;21.23;nan
80137;BME280;69466;55.948;37.484;2023-07-28T12:54:48;98365.53;;;21.17;nan
80137;BME280;69466;55.948;37.484;2023-07-28T12:57:14;98362.09;;;21.12;nan
80137;BME280;69466;55.948;37.484;2023-07-28T12:59:40;98353.28;;;21.01;nan
80137;BME280;69466;55.948;37.484;2023-07-28T13:02:06;98357.50;;;20.99;nan
80137;BME280;69466;55.948;37.484;2023-07-28T13:04:32;98368.47;;;20.90;nan
80137;BME280;69466;55.948;37.484;2023-07-28T13:06:57;98354.06;;;20.93;nan
80137;BME280;69466;55.948;37.484;2023-07-28T13:09:23;98358.09;;;20.96;nan
80137;BME280;69466;55.948;37.484;2023-07-28T13:11:49;98366.03;;;20.89;nan
80137;BME280;69466;55.948;37.484;2023-07-28T13:14:15;98361.81;;;20.91;nan
80137;BME280;69466;55.948;37.484;2023-07-28T13:16:41;98358.84;;;20.79;nan
80137;BME280;69466;55.948;37.484;2023-07-28T13:19:08;98372.50;;;20.84;nan
80137;BME280;69466;55.948;37.484;2023-07-28T13:21:33;98364.84;;;20.81;nan